Time;durP1;ratioP1;P1;durP2;ratioP2;P2;SDS_P1;SDS_P2;PMS_P1;PMS_P2;Temp;Humidity;BMP_temperature;BMP_pressure;BME280_temperature;BME280_humidity;BME280_pressure;Samples;Min_cycle;Max_cycle;Signal;HPM_P1;HPM_P2
2022/03/11 00:01:10;;;;;;;17.40;9.83;;;;;;;6.84;44.46;101714.00;5016628;28;20033;-25
2022/03/11 00:03:36;;;;;;;16.57;9.70;;;;;;;6.83;44.50;101718.53;5016031;28;20396;-23
2022/03/11 00:06:02;;;;;;;16.83;9.67;;;;;;;6.79;44.72;101719.06;5036080;28;20909;-28
2022/03/11 00:08:28;;;;;;;19.57;9.93;;;;;;;6.79;44.36;101714.50;5036595;28;20048;-25
2022/03/11 00:10:57;;;;;;;17.57;10.23;;;;;;;6.80;44.88;101713.50;5017957;28;20037;-23
2022/03/11 00:13:24;;;;;;;17.17;9.53;;;;;;;6.74;44.52;101703.38;5017485;28;20567;-25
2022/03/11 00:15:51;;;;;;;19.20;10.53;;;;;;;6.73;44.65;101709.75;5036221;28;20041;-25
2022/03/11 00:18:17;;;;;;;17.00;10.07;;;;;;;6.75;44.45;101705.06;5016178;28;20171;-25
2022/03/11 00:20:43;;;;;;;15.93;9.53;;;;;;;6.72;44.84;101700.00;5035519;28;20040;-24
2022/03/11 00:23:10;;;;;;;17.57;10.17;;;;;;;6.69;44.61;101700.31;5036482;28;20106;-20
2022/03/11 00:25:37;;;;;;;17.30;10.13;;;;;;;6.69;44.70;101705.72;5017634;28;20082;-23
2022/03/11 00:28:03;;;;;;;18.13;9.90;;;;;;;6.69;44.55;101697.63;5016878;28;20051;-23
2022/03/11 00:30:29;;;;;;;18.97;9.53;;;;;;;6.70;44.71;101696.63;5017796;28;20075;-25
2022/03/11 00:33:00;;;;;;;19.20;9.60;;;;;;;6.68;44.49;101698.66;5001764;28;20036;-26
2022/03/11 00:35:26;;;;;;;17.50;9.60;;;;;;;6.64;44.75;101691.91;5035685;28;20119;-23
2022/03/11 00:37:52;;;;;;;18.87;10.10;;;;;;;6.67;44.73;101700.50;5000632;28;20380;-25
2022/03/11 00:40:18;;;;;;;17.67;9.60;;;;;;;6.67;44.53;101702.34;5016317;28;20033;-26
2022/03/11 00:42:44;;;;;;;18.63;10.23;;;;;;;6.64;44.64;101691.91;5015139;28;20362;-21
2022/03/11 00:45:11;;;;;;;19.80;10.13;;;;;;;6.61;44.72;101694.91;5035253;28;20049;-24
2022/03/11 00:47:38;;;;;;;18.93;10.10;;;;;;;6.51;44.95;101682.44;5018038;28;20060;-24
2022/03/11 00:50:04;;;;;;;19.47;9.80;;;;;;;6.54;45.07;101692.91;5014991;28;20055;-21
2022/03/11 00:52:31;;;;;;;17.73;10.13;;;;;;;6.53;44.84;101691.22;5035613;28;20067;-24
2022/03/11 00:54:57;;;;;;;18.10;9.77;;;;;;;6.51;45.38;101687.81;5033985;28;20060;-25
2022/03/11 00:57:23;;;;;;;16.20;9.63;;;;;;;6.48;45.25;101690.03;5036081;28;20044;-20
2022/03/11 00:59:49;;;;;;;17.80;9.60;;;;;;;6.46;44.81;101684.81;5034999;28;20037;-23
2022/03/11 01:02:17;;;;;;;16.27;9.47;;;;;;;6.41;45.17;101684.44;5035194;28;20662;-25
2022/03/11 01:04:44;;;;;;;18.07;9.53;;;;;;;6.40;45.11;101680.91;5015698;28;20124;-21
2022/03/11 01:07:10;;;;;;;15.93;9.27;;;;;;;6.34;45.75;101675.34;5014861;28;20038;-25
2022/03/11 01:09:36;;;;;;;18.13;9.20;;;;;;;6.27;45.85;101679.69;5016107;28;20072;-20
2022/03/11 01:12:02;;;;;;;19.23;9.67;;;;;;;6.27;45.58;101668.91;5016291;28;20773;-21
2022/03/11 01:14:28;;;;;;;18.87;9.67;;;;;;;6.22;45.50;101667.56;5017373;28;20049;-25
2022/03/11 01:16:54;;;;;;;18.17;9.93;;;;;;;6.13;45.63;101647.00;5001145;28;20160;-24
2022/03/11 01:19:20;;;;;;;16.90;9.77;;;;;;;6.15;45.91;101658.47;5017023;28;20393;-23
2022/03/11 01:21:46;;;;;;;17.93;9.43;;;;;;;6.04;45.87;101648.00;5017061;28;20119;-21
2022/03/11 01:24:13;;;;;;;18.80;10.23;;;;;;;6.07;46.39;101658.44;5017547;28;21494;-23
2022/03/11 01:26:39;;;;;;;17.87;9.50;;;;;;;6.04;46.11;101645.31;5015103;28;20388;-22
2022/03/11 01:29:05;;;;;;;18.20;10.27;;;;;;;6.01;46.20;101649.16;5034908;28;20068;-25
2022/03/11 01:31:31;;;;;;;17.67;9.97;;;;;;;5.98;46.43;101652.16;5015912;28;20116;-25
2022/03/11 01:33:56;;;;;;;17.43;10.10;;;;;;;5.94;46.78;101644.56;4996576;28;20044;-20
2022/03/11 01:36:26;;;;;;;17.63;10.30;;;;;;;5.90;46.57;101636.81;5014703;28;20171;-23
2022/03/11 01:38:56;;;;;;;19.37;10.10;;;;;;;5.88;46.19;101633.44;5035160;28;20155;-22
2022/03/11 01:41:22;;;;;;;18.23;10.17;;;;;;;5.84;46.95;101632.06;5017465;28;20098;-21
2022/03/11 01:44:08;;;;;;;17.43;9.97;;;;;;;5.82;46.79;101631.41;5035182;28;20052;-21
2022/03/11 01:46:37;;;;;;;17.87;10.23;;;;;;;5.79;46.58;101630.88;5034260;28;20450;-22
2022/03/11 01:49:05;;;;;;;18.63;9.53;;;;;;;5.75;46.99;101622.25;5031914;28;20055;-23
2022/03/11 01:51:33;;;;;;;19.03;10.00;;;;;;;5.64;47.15;101609.13;5033712;28;21294;-22
2022/03/11 01:54:00;;;;;;;18.53;10.20;;;;;;;5.67;47.47;101611.47;5033538;28;20373;-21
2022/03/11 01:56:26;;;;;;;17.87;10.27;;;;;;;5.65;47.43;101610.81;5033017;28;20495;-21
2022/03/11 01:58:55;;;;;;;17.23;9.50;;;;;;;5.65;47.07;101606.25;5034900;28;20480;-25
2022/03/11 02:01:22;;;;;;;20.33;10.80;;;;;;;5.64;47.10;101601.03;5016459;28;20376;-23
2022/03/11 02:03:49;;;;;;;18.20;9.97;;;;;;;5.62;47.57;101595.00;4994906;28;20538;-22
2022/03/11 02:06:15;;;;;;;17.77;10.53;;;;;;;5.60;47.33;101597.00;4999642;28;20045;-25
2022/03/11 02:08:42;;;;;;;19.80;9.93;;;;;;;5.56;47.84;101588.41;5013026;28;20701;-27
2022/03/11 02:11:11;;;;;;;17.33;10.00;;;;;;;5.54;47.45;101591.25;5034040;28;20045;-23
2022/03/11 02:13:51;;;;;;;20.33;10.37;;;;;;;5.54;47.71;101582.34;5034611;28;20372;-27
2022/03/11 02:16:19;;;;;;;20.43;10.17;;;;;;;5.50;47.88;101583.69;5016544;28;20607;-21
2022/03/11 02:18:45;;;;;;;18.43;9.83;;;;;;;5.47;47.87;101574.09;5034828;28;20056;-21
2022/03/11 02:21:12;;;;;;;20.50;10.63;;;;;;;5.46;47.46;101564.34;5016672;28;20082;-24
2022/03/11 02:23:52;;;;;;;17.90;10.23;;;;;;;5.43;47.56;101570.03;5014771;28;20625;-21
2022/03/11 02:26:21;;;;;;;18.17;10.43;;;;;;;5.37;47.79;101563.47;5018440;28;20139;-26
2022/03/11 02:28:49;;;;;;;19.87;10.80;;;;;;;5.41;47.91;101561.28;5020545;28;20122;-20
2022/03/11 02:31:17;;;;;;;23.47;10.40;;;;;;;5.40;47.74;101565.81;5019986;28;20041;-22
2022/03/11 02:33:43;;;;;;;16.53;9.93;;;;;;;5.37;48.26;101554.53;5020020;28;20106;-24
2022/03/11 02:36:10;;;;;;;18.60;10.27;;;;;;;5.38;48.10;101550.84;5037735;28;20424;-20
2022/03/11 02:38:37;;;;;;;19.27;10.57;;;;;;;5.38;47.89;101548.16;5038003;28;20044;-21
2022/03/11 02:41:03;;;;;;;19.57;10.13;;;;;;;5.35;48.36;101553.88;5019859;28;20287;-22
2022/03/11 02:43:29;;;;;;;17.83;10.43;;;;;;;5.34;48.12;101544.94;5038058;28;20068;-22
2022/03/11 02:45:59;;;;;;;18.10;10.10;;;;;;;5.34;47.99;101546.81;5037814;28;20112;-21
2022/03/11 02:48:25;;;;;;;19.50;10.10;;;;;;;5.35;47.85;101543.94;5037671;28;20045;-27
2022/03/11 02:50:51;;;;;;;17.27;9.97;;;;;;;5.27;47.69;101527.78;5025020;28;20437;-21
2022/03/11 02:53:17;;;;;;;18.07;10.10;;;;;;;5.35;48.07;101543.13;5019337;28;20047;-23
2022/03/11 02:55:45;;;;;;;19.87;10.63;;;;;;;5.31;48.19;101534.53;5019921;28;20103;-23
2022/03/11 02:58:11;;;;;;;16.90;9.77;;;;;;;5.31;48.50;101539.06;5020449;28;20300;-22
2022/03/11 03:00:37;;;;;;;18.97;10.67;;;;;;;5.31;48.38;101539.06;5037766;28;20043;-22
2022/03/11 03:03:03;;;;;;;18.10;9.63;;;;;;;5.29;48.03;101543.75;5019141;28;20644;-24
2022/03/11 03:05:30;;;;;;;17.40;10.00;;;;;;;5.24;48.77;101534.31;5017097;28;20040;-25
2022/03/11 03:07:55;;;;;;;17.80;10.17;;;;;;;5.22;48.57;101533.66;5017800;28;20037;-21
2022/03/11 03:10:24;;;;;;;19.37;10.53;;;;;;;5.24;48.14;101537.00;5017183;28;20776;-22
2022/03/11 03:12:53;;;;;;;20.10;10.50;;;;;;;5.21;48.16;101542.72;5037470;28;20033;-21
2022/03/11 03:15:21;;;;;;;17.60;10.20;;;;;;;5.21;48.37;101537.34;5020160;28;20040;-26
2022/03/11 03:17:47;;;;;;;19.60;10.77;;;;;;;5.19;48.54;101536.63;5018321;28;20063;-23
2022/03/11 03:20:14;;;;;;;18.90;10.00;;;;;;;5.19;48.47;101533.13;5036918;28;20126;-26
2022/03/11 03:22:40;;;;;;;20.73;10.63;;;;;;;5.14;48.71;101533.63;5037023;28;20578;-20
2022/03/11 03:25:09;;;;;;;18.47;10.20;;;;;;;5.17;48.31;101525.22;5037188;28;21364;-20
2022/03/11 03:27:36;;;;;;;18.20;9.63;;;;;;;5.15;48.60;101529.91;5017339;28;20170;-21
2022/03/11 03:30:04;;;;;;;19.33;10.13;;;;;;;5.13;48.38;101529.22;4996144;28;20122;-27
2022/03/11 03:32:32;;;;;;;18.67;10.00;;;;;;;5.11;48.59;101528.53;5037021;28;20480;-21
2022/03/11 03:34:58;;;;;;;16.90;9.90;;;;;;;5.08;48.79;101518.13;5017145;28;20049;-24
2022/03/11 03:37:24;;;;;;;18.97;10.40;;;;;;;5.06;48.74;101520.13;5035792;28;20118;-24
2022/03/11 03:39:50;;;;;;;17.53;9.80;;;;;;;5.04;48.59;101520.28;5023195;28;20120;-21
2022/03/11 03:42:16;;;;;;;17.90;10.13;;;;;;;5.03;48.99;101525.81;5013175;28;20041;-21
2022/03/11 03:44:45;;;;;;;18.63;10.40;;;;;;;5.02;48.84;101524.97;4996663;28;20512;-26
2022/03/11 03:47:11;;;;;;;18.10;10.37;;;;;;;5.01;48.57;101512.53;5017902;28;20118;-22
2022/03/11 03:49:41;;;;;;;18.93;10.10;;;;;;;5.02;48.92;101519.59;5003038;28;20049;-21
2022/03/11 03:52:12;;;;;;;20.10;9.57;;;;;;;5.05;48.47;101516.59;5017370;28;20080;-22
2022/03/11 03:54:44;;;;;;;16.60;9.70;;;;;;;4.99;48.67;101498.44;5034589;28;20375;-25
2022/03/11 03:57:10;;;;;;;18.97;9.83;;;;;;;5.05;48.40;101521.13;5016886;28;20072;-20
2022/03/11 03:59:39;;;;;;;17.40;9.37;;;;;;;5.01;48.24;101512.53;5014789;28;20377;-23
2022/03/11 04:02:05;;;;;;;18.40;10.07;;;;;;;5.02;48.46;101508.84;5015363;28;20595;-21
2022/03/11 04:04:32;;;;;;;18.27;9.30;;;;;;;5.07;48.64;101503.00;5036411;28;20041;-25
2022/03/11 04:06:57;;;;;;;18.67;9.93;;;;;;;5.06;48.38;101512.06;5016245;28;20039;-23
2022/03/11 04:09:26;;;;;;;19.93;9.87;;;;;;;5.05;48.45;101510.38;4996154;28;20049;-23
2022/03/11 04:11:53;;;;;;;19.27;9.77;;;;;;;5.08;47.72;101508.19;5016385;28;20040;-23
2022/03/11 04:14:19;;;;;;;17.20;9.37;;;;;;;5.09;48.14;101511.75;5006772;28;20049;-25
2022/03/11 04:16:45;;;;;;;16.53;9.40;;;;;;;5.04;48.17;101495.25;5011474;28;20075;-25
2022/03/11 04:19:11;;;;;;;20.80;9.23;;;;;;;5.11;47.83;101506.22;5036086;28;20689;-22
2022/03/11 04:21:36;;;;;;;17.17;9.37;;;;;;;5.12;47.90;101503.38;5017695;28;20072;-23
2022/03/11 04:24:04;;;;;;;18.80;9.83;;;;;;;5.13;47.69;101505.06;5035791;28;21452;-21
2022/03/11 04:26:30;;;;;;;18.33;9.57;;;;;;;5.11;48.25;101499.00;5017051;28;20039;-24
2022/03/11 04:28:56;;;;;;;17.17;8.90;;;;;;;5.13;47.80;101498.84;5035764;28;20043;-21
2022/03/11 04:31:23;;;;;;;18.40;9.23;;;;;;;5.13;47.63;101502.38;5035670;28;20700;-20
2022/03/11 04:33:49;;;;;;;15.77;8.77;;;;;;;5.08;48.09;101492.09;5035286;28;20533;-24
2022/03/11 04:36:18;;;;;;;16.07;9.23;;;;;;;5.08;47.68;101491.25;5035575;28;20037;-21
2022/03/11 04:38:44;;;;;;;16.07;9.07;;;;;;;5.14;47.63;101498.69;5033937;28;20107;-25
2022/03/11 04:41:11;;;;;;;17.63;9.47;;;;;;;5.10;47.70;101494.63;5034702;28;20123;-25
2022/03/11 04:43:37;;;;;;;15.57;8.97;;;;;;;5.08;48.13;101493.94;5034218;28;20532;-21
2022/03/11 04:46:15;;;;;;;16.13;9.17;;;;;;;5.06;47.80;101487.91;5000938;28;20053;-21
2022/03/11 04:48:47;;;;;;;19.60;9.23;;;;;;;5.06;47.87;101493.28;5033484;28;20519;-22
2022/03/11 04:51:14;;;;;;;18.93;9.47;;;;;;;5.04;48.29;101496.09;5015517;28;20400;-21
2022/03/11 04:53:42;;;;;;;21.13;9.93;;;;;;;5.01;48.48;101491.03;5016830;28;20319;-21
2022/03/11 04:56:09;;;;;;;17.27;9.67;;;;;;;5.02;48.05;101492.75;5035188;28;20296;-23
2022/03/11 04:58:36;;;;;;;15.90;8.97;;;;;;;4.96;48.14;101481.78;5032585;28;20749;-22
2022/03/11 05:01:03;;;;;;;18.23;9.40;;;;;;;5.04;48.59;101498.78;5018022;28;20045;-23
2022/03/11 05:03:30;;;;;;;17.83;9.00;;;;;;;5.00;48.67;101494.72;5033518;28;20044;-20
2022/03/11 05:05:57;;;;;;;18.10;9.17;;;;;;;5.00;48.73;101500.09;5036161;28;20087;-24
2022/03/11 05:08:26;;;;;;;18.40;9.20;;;;;;;4.94;48.64;101483.78;5035062;28;20684;-23
2022/03/11 05:10:52;;;;;;;17.40;9.27;;;;;;;4.96;48.62;101492.53;5035682;28;20036;-27
2022/03/11 05:13:19;;;;;;;18.87;10.13;;;;;;;4.88;48.73;101478.06;5015586;28;20029;-20
2022/03/11 05:15:44;;;;;;;16.77;8.53;;;;;;;4.97;48.69;101480.78;5017048;28;20033;-20
2022/03/11 05:18:11;;;;;;;16.87;9.20;;;;;;;4.95;49.23;101482.78;5015210;28;21427;-24
2022/03/11 05:20:38;;;;;;;17.37;9.23;;;;;;;4.95;49.18;101490.84;5017599;28;20089;-24
2022/03/11 05:23:07;;;;;;;16.53;9.23;;;;;;;4.93;49.52;101484.81;4999884;28;20051;-20
2022/03/11 05:25:33;;;;;;;16.33;9.47;;;;;;;4.94;49.27;101483.78;5033620;28;21315;-22
2022/03/11 05:28:00;;;;;;;16.50;9.37;;;;;;;4.92;49.90;101475.88;5017567;28;20067;-23
2022/03/11 05:30:30;;;;;;;16.10;8.73;;;;;;;4.85;49.57;101464.94;5001069;28;20045;-22
2022/03/11 05:33:00;;;;;;;18.00;9.37;;;;;;;4.92;49.58;101481.25;5034612;28;20669;-21
2022/03/11 05:35:29;;;;;;;18.63;9.20;;;;;;;4.92;49.33;101478.56;5015002;28;20480;-22
2022/03/11 05:37:56;;;;;;;16.50;8.90;;;;;;;4.89;49.72;101474.34;5016818;28;20114;-23
2022/03/11 05:40:26;;;;;;;16.83;9.07;;;;;;;4.88;49.54;101471.84;5017122;28;20555;-24
2022/03/11 05:42:54;;;;;;;17.27;9.67;;;;;;;4.90;49.67;101476.03;5034760;28;20033;-22
2022/03/11 05:45:21;;;;;;;16.13;8.87;;;;;;;4.87;49.91;101472.84;5017968;28;20029;-23
2022/03/11 05:47:48;;;;;;;21.97;9.27;;;;;;;4.83;50.56;101468.81;5017291;28;20033;-20
2022/03/11 05:50:16;;;;;;;18.40;9.47;;;;;;;4.84;50.35;101468.66;5017710;28;20622;-20
2022/03/11 05:52:45;;;;;;;18.43;9.10;;;;;;;4.79;49.97;101457.53;4998579;28;20481;-23
2022/03/11 05:55:13;;;;;;;17.80;9.30;;;;;;;4.85;50.35;101466.78;5036465;28;20036;-24
2022/03/11 05:57:40;;;;;;;18.70;9.17;;;;;;;4.83;50.68;101466.94;5035416;28;20480;-27
2022/03/11 06:00:07;;;;;;;17.10;9.47;;;;;;;4.80;50.55;101453.00;5018147;28;21859;-25
2022/03/11 06:02:38;;;;;;;17.90;9.00;;;;;;;4.82;50.80;101465.25;5039105;28;20047;-25
2022/03/11 06:05:11;;;;;;;18.53;10.00;;;;;;;4.78;50.55;101460.38;5039300;28;20036;-22
2022/03/11 06:07:38;;;;;;;17.37;9.07;;;;;;;4.79;51.14;101460.22;5019761;28;20167;-19
2022/03/11 06:10:05;;;;;;;18.40;9.80;;;;;;;4.80;51.27;101458.34;5020737;28;20045;-21
2022/03/11 06:12:34;;;;;;;16.03;9.70;;;;;;;4.75;51.12;101456.16;5018617;28;20036;-20
2022/03/11 06:15:00;;;;;;;17.93;9.37;;;;;;;4.79;51.19;101467.44;5039005;28;20044;-20
2022/03/11 06:17:46;;;;;;;18.37;9.73;;;;;;;4.81;50.85;101466.25;5022049;28;20060;-20
2022/03/11 06:20:13;;;;;;;18.03;9.70;;;;;;;4.78;51.33;101461.22;5020698;28;20408;-20
2022/03/11 06:22:49;;;;;;;17.60;9.60;;;;;;;4.74;51.13;101457.16;5020923;28;20120;-22
2022/03/11 06:25:17;;;;;;;17.27;9.13;;;;;;;4.79;51.47;101462.06;5020598;28;20578;-23
2022/03/11 06:27:44;;;;;;;17.20;9.20;;;;;;;4.80;51.41;101467.28;5020082;28;20065;-24
2022/03/11 06:30:11;;;;;;;19.20;9.63;;;;;;;4.81;51.60;101462.75;5038537;28;20486;-25
2022/03/11 06:32:56;;;;;;;18.70;10.27;;;;;;;4.70;51.90;101445.88;5014836;28;20917;-23
2022/03/11 06:35:24;;;;;;;19.80;10.10;;;;;;;4.85;51.78;101466.78;5039159;28;20067;-27
2022/03/11 06:37:52;;;;;;;18.50;9.80;;;;;;;4.85;51.85;101474.84;5040686;28;20116;-25
2022/03/11 06:40:22;;;;;;;18.13;10.23;;;;;;;4.88;51.62;101467.31;5039403;28;20044;-22
2022/03/11 06:42:49;;;;;;;20.03;10.37;;;;;;;4.90;51.90;101467.16;5022602;28;20079;-21
2022/03/11 06:45:17;;;;;;;17.27;9.70;;;;;;;4.92;52.14;101473.19;5002227;28;20044;-25
2022/03/11 06:50:49;;;;;;;20.83;10.53;;;;;;;4.94;52.14;101473.03;5059429;22;20133;-23
2022/03/11 06:53:17;;;;;;;16.07;9.43;;;;;;;4.97;52.50;101467.38;5019827;28;20123;-24
2022/03/11 06:55:44;;;;;;;18.83;10.30;;;;;;;4.94;52.06;101460.47;5038173;28;20036;-24
2022/03/11 06:58:11;;;;;;;18.23;10.20;;;;;;;5.01;52.06;101455.31;5045141;28;20094;-23
2022/03/11 07:00:56;;;;;;;20.77;11.27;;;;;;;5.11;51.70;101463.22;5028440;28;20049;-21
2022/03/11 07:03:24;;;;;;;20.83;11.27;;;;;;;5.12;52.25;101462.25;5044926;28;20028;-22
2022/03/11 07:05:51;;;;;;;21.70;10.57;;;;;;;5.17;51.68;101463.44;5041197;28;20029;-24
2022/03/11 07:08:17;;;;;;;20.37;10.50;;;;;;;5.20;51.45;101465.78;5030761;28;20707;-25
2022/03/11 07:10:45;;;;;;;19.37;10.67;;;;;;;5.24;52.20;101464.47;5038026;28;20033;-21
2022/03/11 07:13:17;;;;;;;19.90;10.93;;;;;;;5.32;51.41;101450.22;5029991;28;20111;-24
2022/03/11 07:15:47;;;;;;;20.77;10.60;;;;;;;5.37;51.52;101458.66;5004244;28;20032;-21
2022/03/11 07:18:13;;;;;;;18.03;10.37;;;;;;;5.33;50.91;101434.94;5035747;28;20047;-23
2022/03/11 07:20:40;;;;;;;18.20;11.10;;;;;;;5.51;50.98;101448.28;5028363;28;20318;-23
2022/03/11 07:23:07;;;;;;;23.90;11.60;;;;;;;5.57;50.95;101453.81;5036381;28;20033;-26
2022/03/11 07:25:34;;;;;;;21.50;11.23;;;;;;;5.65;50.81;101454.88;5016180;28;20047;-21
2022/03/11 07:28:00;;;;;;;22.07;11.63;;;;;;;5.69;50.52;101451.69;5039500;28;20064;-24
2022/03/11 07:30:26;;;;;;;21.47;11.37;;;;;;;5.76;50.35;101457.25;5031320;28;20537;-22
2022/03/11 07:32:53;;;;;;;19.07;10.47;;;;;;;5.81;49.87;101454.91;5030621;28;20056;-22
2022/03/11 07:35:19;;;;;;;21.23;11.40;;;;;;;5.83;49.97;101446.66;5044340;28;20036;-25
2022/03/11 07:37:47;;;;;;;21.87;11.53;;;;;;;5.96;50.05;101457.78;5045294;28;20503;-26
2022/03/11 07:40:16;;;;;;;20.67;11.60;;;;;;;6.03;49.59;101450.75;5017028;28;20079;-28
2022/03/11 07:42:43;;;;;;;23.03;12.33;;;;;;;6.10;49.41;101450.94;5045845;28;20033;-27
2022/03/11 07:45:13;;;;;;;21.13;11.80;;;;;;;6.18;49.15;101448.22;5032385;28;20662;-22
2022/03/11 07:47:47;;;;;;;18.73;11.47;;;;;;;6.24;49.04;101449.41;5026955;28;20033;-22
2022/03/11 07:50:21;;;;;;;20.63;12.07;;;;;;;6.33;49.63;101451.09;5044089;28;20055;-21
2022/03/11 07:52:50;;;;;;;22.00;11.30;;;;;;;6.44;49.10;101455.28;5050399;28;20076;-22
2022/03/11 07:55:22;;;;;;;19.13;12.00;;;;;;;6.53;49.33;101456.97;5029211;28;20043;-26
2022/03/11 07:57:48;;;;;;;22.10;11.80;;;;;;;6.63;48.80;101446.00;5027015;28;20595;-29
2022/03/11 08:00:15;;;;;;;19.40;11.57;;;;;;;6.80;47.78;101448.66;5032933;28;21756;-22
2022/03/11 08:02:46;;;;;;;19.87;11.80;;;;;;;7.02;48.03;101442.56;5046423;28;20048;-25
2022/03/11 08:05:15;;;;;;;22.20;12.53;;;;;;;7.16;47.24;101443.69;5049037;28;20037;-26
2022/03/11 08:07:51;;;;;;;21.33;11.93;;;;;;;7.41;47.15;101441.72;5028668;28;20490;-26
2022/03/11 08:10:20;;;;;;;20.70;12.07;;;;;;;7.56;46.16;101439.13;5029659;28;20118;-23
2022/03/11 08:12:53;;;;;;;22.83;12.03;;;;;;;7.71;45.51;101441.03;5031112;28;20231;-22
2022/03/11 08:15:19;;;;;;;21.30;12.17;;;;;;;7.82;45.75;101419.06;5031530;28;20071;-22
2022/03/11 08:17:49;;;;;;;20.03;12.43;;;;;;;8.08;45.01;101428.66;5026888;28;20500;-22
2022/03/11 08:20:19;;;;;;;19.80;11.53;;;;;;;8.24;45.77;101431.22;5041801;28;20170;-24
2022/03/11 08:22:50;;;;;;;22.40;12.63;;;;;;;8.49;44.48;101422.09;5028993;28;20032;-26
2022/03/11 08:25:20;;;;;;;21.17;11.87;;;;;;;8.66;44.08;101431.69;5041304;28;20645;-25
2022/03/11 08:27:48;;;;;;;22.23;12.43;;;;;;;8.98;43.74;101429.66;5044584;28;20040;-23
2022/03/11 08:30:18;;;;;;;23.07;12.50;;;;;;;9.07;42.95;101420.44;5027664;28;20556;-23
2022/03/11 08:32:45;;;;;;;21.00;12.87;;;;;;;9.31;43.00;101423.84;5028595;28;20040;-28
2022/03/11 08:35:12;;;;;;;20.83;12.53;;;;;;;9.51;42.29;101417.84;5042212;28;20038;-23
2022/03/11 08:37:39;;;;;;;22.57;12.67;;;;;;;9.55;42.10;101409.13;5012851;28;20043;-24
2022/03/11 08:40:09;;;;;;;22.07;12.70;;;;;;;9.67;42.19;101403.22;5035820;28;20049;-23
2022/03/11 08:42:39;;;;;;;23.40;12.77;;;;;;;9.84;41.89;101412.75;5029967;28;20481;-26
2022/03/11 08:45:07;;;;;;;21.67;12.47;;;;;;;9.99;41.64;101406.47;5039630;28;20033;-24
2022/03/11 08:47:33;;;;;;;22.73;12.97;;;;;;;10.13;40.84;101397.41;5032723;28;20115;-22
2022/03/11 08:50:02;;;;;;;22.07;13.10;;;;;;;10.47;41.02;101403.94;5034394;28;20499;-22
2022/03/11 08:52:30;;;;;;;21.80;15.10;;;;;;;10.55;40.57;101395.69;5036123;28;20514;-22
2022/03/11 08:54:59;;;;;;;22.17;12.60;;;;;;;10.75;40.42;101409.34;5044573;28;20032;-22
2022/03/11 08:57:28;;;;;;;21.67;12.97;;;;;;;10.88;39.94;101395.06;5031210;28;20045;-22
2022/03/11 08:59:55;;;;;;;22.97;13.17;;;;;;;11.05;40.08;101409.09;5012290;28;20040;-24
2022/03/11 09:02:23;;;;;;;22.47;13.00;;;;;;;11.13;39.76;101408.09;5033993;28;20123;-22
2022/03/11 09:04:53;;;;;;;22.43;12.80;;;;;;;11.33;39.64;101405.47;5041570;28;20448;-25
2022/03/11 10:21:45;;;;;;;27.60;13.00;;;;;;;13.30;37.56;101317.91;5064438;27;20415;-80
2022/03/11 10:24:13;;;;;;;25.13;12.20;;;;;;;13.22;37.14;101312.72;5064437;28;20049;-78
2022/03/11 10:26:46;;;;;;;23.10;13.03;;;;;;;13.18;37.52;101317.75;5064520;28;20041;-78
2022/03/11 10:29:16;;;;;;;25.90;12.83;;;;;;;13.27;37.37;101304.75;5063369;28;20059;-78
2022/03/11 10:31:43;;;;;;;30.13;13.17;;;;;;;13.20;37.63;101314.00;5064162;28;20449;-77
2022/03/11 10:34:29;;;;;;;26.23;13.73;;;;;;;13.56;38.00;101316.09;5063514;28;20051;-79
2022/03/11 10:37:06;;;;;;;27.47;13.00;;;;;;;13.65;38.24;101309.34;5063426;28;20025;-80
2022/03/11 10:39:41;;;;;;;27.60;12.70;;;;;;;13.63;37.24;101303.28;5061504;28;20083;-76
2022/03/11 10:42:12;;;;;;;;;;;;;;;13.84;36.85;101306.66;5061788;28;20488;-77
2022/03/11 10:44:52;;;;;;;31.87;13.57;;;;;;;13.50;37.15;101306.94;5062464;28;19925;-80
2022/03/11 10:47:20;;;;;;;25.53;13.17;;;;;;;13.48;37.29;101292.69;5062376;28;20182;-77
2022/03/11 10:49:50;;;;;;;34.30;14.20;;;;;;;13.66;37.34;101291.94;5061491;28;20046;-77
2022/03/11 10:52:28;;;;;;;28.70;13.60;;;;;;;13.67;36.75;101292.78;5062017;28;20036;-78
2022/03/11 10:54:54;;;;;;;26.20;13.63;;;;;;;13.67;36.70;101298.22;5062209;28;20483;-78
2022/03/11 10:57:21;;;;;;;28.87;13.90;;;;;;;13.70;37.34;101291.50;5062307;28;20130;-77
2022/03/11 10:59:46;;;;;;;31.17;13.90;;;;;;;13.71;36.85;101277.66;5062346;28;20679;-79
2022/03/11 11:02:12;;;;;;;27.53;13.40;;;;;;;13.64;36.87;101288.59;5060887;28;20127;-79
2022/03/11 11:04:40;;;;;;;28.63;14.13;;;;;;;13.49;37.34;101286.22;5060865;28;20048;-79
2022/03/11 11:07:07;;;;;;;26.33;14.37;;;;;;;13.62;37.21;101285.25;5062339;28;20130;-75
2022/03/11 11:09:33;;;;;;;27.80;14.63;;;;;;;13.75;36.92;101284.34;5059754;28;20082;-75
2022/03/11 11:11:58;;;;;;;25.37;14.13;;;;;;;13.86;37.38;101282.78;5060912;28;20040;-78
2022/03/11 11:14:24;;;;;;;27.97;14.33;;;;;;;14.14;36.97;101276.00;5060605;28;21368;-77
2022/03/11 11:16:55;;;;;;;29.20;13.97;;;;;;;14.19;37.17;101259.81;5059845;28;20116;-79
2022/03/11 11:19:20;;;;;;;32.03;14.07;;;;;;;14.18;36.42;101280.81;5060106;28;20039;-77
2022/03/11 11:21:48;;;;;;;28.80;14.20;;;;;;;14.23;36.24;101269.22;5060492;28;20040;-75
2022/03/11 11:24:20;;;;;;;27.50;13.60;;;;;;;14.17;36.85;101270.09;5059665;28;20116;-78
2022/03/11 11:26:51;;;;;;;25.17;13.50;;;;;;;14.52;36.65;101281.28;5059675;28;20575;-77
2022/03/11 11:29:23;;;;;;;28.03;14.20;;;;;;;14.59;35.65;101263.97;5060230;28;20043;-79
2022/03/11 11:31:50;;;;;;;23.60;13.53;;;;;;;14.57;35.92;101263.41;5053398;28;20651;-77
2022/03/11 11:34:27;;;;;;;23.33;13.43;;;;;;;14.47;36.54;101263.91;5061882;28;20383;-80
2022/03/11 11:36:52;;;;;;;27.53;13.90;;;;;;;14.72;36.78;101252.94;5046460;28;20033;-79
2022/03/11 11:39:18;;;;;;;26.43;14.77;;;;;;;14.50;35.33;101247.13;5047360;28;20044;-75
2022/03/11 11:41:55;;;;;;;27.90;15.03;;;;;;;14.68;36.56;101243.56;5046864;28;20610;-80
2022/03/11 11:44:31;;;;;;;25.07;14.73;;;;;;;14.83;36.91;101230.34;5045770;28;20041;-79
2022/03/11 11:47:15;;;;;;;28.97;14.77;;;;;;;14.85;35.93;101227.41;5053160;28;20041;-76
2022/03/11 11:49:55;;;;;;;25.07;14.57;;;;;;;14.63;36.62;101229.78;5045745;28;20032;-76
2022/03/11 11:52:36;;;;;;;26.10;14.60;;;;;;;14.53;36.25;101227.56;5046997;28;21427;-76
2022/03/11 11:55:14;;;;;;;25.30;15.60;;;;;;;14.41;36.40;101207.59;5046399;28;20052;-75
2022/03/11 11:57:42;;;;;;;25.30;15.13;;;;;;;14.28;36.46;101214.88;5046214;28;20033;-74
2022/03/11 12:00:32;;;;;;;27.63;15.77;;;;;;;14.44;37.04;101218.88;5044778;28;20110;-77
2022/03/11 12:02:59;;;;;;;26.73;16.80;;;;;;;14.38;36.72;101217.03;5044901;28;20452;-77
2022/03/11 12:05:42;;;;;;;27.30;16.90;;;;;;;14.23;36.35;101211.97;5046168;28;20035;-75
2022/03/11 12:08:09;;;;;;;23.80;15.60;;;;;;;14.14;36.59;101199.72;5046482;28;20112;-76
2022/03/11 12:10:49;;;;;;;27.13;15.67;;;;;;;14.32;36.91;101205.16;5045758;28;20115;-78
2022/03/11 12:13:37;;;;;;;27.73;16.23;;;;;;;14.26;36.72;101199.78;5046078;28;20039;-76
2022/03/11 12:16:04;;;;;;;25.03;16.40;;;;;;;14.16;36.82;101186.72;5045248;28;20123;-77
2022/03/11 12:18:55;;;;;;;26.63;16.30;;;;;;;14.07;37.40;101188.06;5045537;28;20044;-77
2022/03/11 12:21:40;;;;;;;26.53;16.47;;;;;;;13.99;38.04;101176.41;5045044;28;20057;-73
2022/03/11 12:24:31;;;;;;;28.08;18.55;;;;;;;14.04;38.88;101172.19;5045502;28;20429;-76
2022/03/11 12:26:56;;;;;;;27.83;16.67;;;;;;;13.99;37.62;101179.13;5077860;27;20583;-77
2022/03/11 12:29:38;;;;;;;28.70;16.70;;;;;;;14.07;38.53;101167.09;5044094;28;20072;-76
2022/03/11 12:32:09;;;;;;;27.03;16.53;;;;;;;14.01;37.85;101168.84;5045836;28;20036;-74
2022/03/11 12:34:34;;;;;;;25.10;16.33;;;;;;;13.85;37.53;101164.81;5054553;28;20408;-76
2022/03/11 12:37:00;;;;;;;26.70;16.27;;;;;;;13.87;37.72;101161.88;5041235;28;20066;-77
2022/03/11 12:39:29;;;;;;;24.27;16.67;;;;;;;13.78;37.30;101155.06;5040306;28;20037;-73
2022/03/11 12:41:55;;;;;;;26.63;16.83;;;;;;;13.77;38.02;101153.38;5043110;28;20033;-76
2022/03/11 12:44:58;;;;;;;26.07;15.70;;;;;;;13.84;38.22;101151.41;5044289;28;20090;-80